Zeynalabdin Tagiyev — 9HLD8 — position and weather

sailwx.info

Track history (hours):
 
Tides and Currents Weather Stations Pressure Air Temp Water Temp Dewpoint Dewpoint Depression Visibility Wind Speed Wind Dir Waves Ship Positions

Zeynalabdin Tagiyev

Last reported at 2015-Jan-27 02:23 UTC. Time now 2015-Jan-30 06:30 UTC.
Position N 35°55' W 005°15'.

Length 140 m; draft 4.8 m.

Type: Cargo ship. MMSI: 256107000.

Date/timePositionNaut miles runAvg speedWind from/ knotsBaromVisibWave heightAir tempDewpointWater temp
2015-Jan-27 02:23N 35°55' W 005°15'4 4.3
2015-Jan-27 01:33N 35°54' W 005°19'0 0.0
2015-Jan-27 00:31N 35°54' W 005°19'0 0.0
2015-Jan-26 23:33N 35°54' W 005°19'0 0.0
2015-Jan-26 22:32N 35°54' W 005°19'0 0.0
2015-Jan-26 21:32N 35°54' W 005°19'0 0.0
2015-Jan-26 20:28N 35°54' W 005°19'1 1.6
2015-Jan-26 19:34N 35°55' W 005°18'1 0.5
2015-Jan-26 18:33N 35°55' W 005°18'1 0.8
2015-Jan-26 17:31N 35°55' W 005°19'0 0.0
2015-Jan-26 16:31N 35°55' W 005°19'0 0.0
2015-Jan-26 15:33N 35°55' W 005°19'0 0.0
2015-Jan-26 14:32N 35°55' W 005°19'0 0.0
2015-Jan-26 13:32N 35°55' W 005°19'0 0.1
2015-Jan-26 12:30N 35°55' W 005°19'3 0.6
2015-Jan-26 07:29N 35°55' W 005°15'8 9.1
2015-Jan-26 06:33N 35°57' W 005°26'196 9.6
2015-Jan-25 10:10N 36°38' W 009°23'610.2
2015-Jan-25 09:33N 36°42' W 009°29'20 9.8
2015-Jan-25 07:33N 36°60' W 009°40'14 9.7
2015-Jan-25 06:07N 37°13' W 009°44'6 9.7
2015-Jan-25 05:33N 37°19' W 009°45'1010.0
2015-Jan-25 04:33N 37°28' W 009°46'1010.1
2015-Jan-25 03:33N 37°38' W 009°49'1010.1
2015-Jan-25 02:33N 37°48' W 009°52'1010.1
2015-Jan-25 01:32N 37°58' W 009°55'1010.0
2015-Jan-25 00:33N 38°08' W 009°58'  
2015-Jan-20 13:33N 49°30' W 000°22'10 9.7
2015-Jan-20 12:33N 49°21' W 000°14'5 4.7
2015-Jan-20 11:32N 49°17' W 000°15'4 0.2
2015-Jan-19 16:11N 49°14' W 000°18'0 0.0
2015-Jan-19 15:23N 49°14' W 000°18'0 0.0
2015-Jan-19 14:20N 49°14' W 000°18'0 0.0
2015-Jan-19 13:33N 49°14' W 000°18'0 0.0
2015-Jan-19 09:22N 49°14' W 000°18'0 0.0
2015-Jan-19 07:03N 49°14' W 000°18'0 0.0
2015-Jan-19 06:27N 49°14' W 000°18'0 0.0
2015-Jan-19 05:21N 49°14' W 000°18'0 0.0
2015-Jan-19 04:32N 49°14' W 000°18'0 0.0
2015-Jan-19 00:31N 49°14' W 000°18'0 0.0
2015-Jan-18 15:21N 49°14' W 000°18'0 0.0
2015-Jan-18 14:20N 49°14' W 000°18'0 0.0
2015-Jan-18 10:31N 49°14' W 000°18'0 0.2
2015-Jan-18 09:33N 49°14' W 000°18'4 3.8
2015-Jan-18 08:33N 49°17' W 000°15'3 2.7
2015-Jan-18 07:33N 49°19' W 000°12'0 0.0
2015-Jan-18 06:22N 49°19' W 000°12'0 0.0
2015-Jan-18 05:11N 49°19' W 000°12'1 0.4
2015-Jan-18 03:23N 49°20' W 000°12'8 8.5
2015-Jan-18 02:26N 49°27' W 000°17'  
Track history (hours):
 
Tides and Currents Weather Stations Pressure Air Temp Water Temp Dewpoint Dewpoint Depression Visibility Wind Speed Wind Dir Waves Ship Positions

Zeynalabdin Tagiyev

Last reported at 2015-Jan-27 02:23 UTC. Time now 2015-Jan-30 06:30 UTC.
Position N 35°55' W 005°15'.

Length 140 m; draft 4.8 m.

Type: Cargo ship. MMSI: 256107000.

Date/timePositionNaut miles runAvg speedWind from/ knotsBaromVisibWave heightAir tempDewpointWater temp
2015-Jan-27 02:23N 35°55' W 005°15'4 4.3
2015-Jan-27 01:33N 35°54' W 005°19'0 0.0
2015-Jan-27 00:31N 35°54' W 005°19'0 0.0
2015-Jan-26 23:33N 35°54' W 005°19'0 0.0
2015-Jan-26 22:32N 35°54' W 005°19'0 0.0
2015-Jan-26 21:32N 35°54' W 005°19'0 0.0
2015-Jan-26 20:28N 35°54' W 005°19'1 1.6
2015-Jan-26 19:34N 35°55' W 005°18'1 0.5
2015-Jan-26 18:33N 35°55' W 005°18'1 0.8
2015-Jan-26 17:31N 35°55' W 005°19'0 0.0
2015-Jan-26 16:31N 35°55' W 005°19'0 0.0
2015-Jan-26 15:33N 35°55' W 005°19'0 0.0
2015-Jan-26 14:32N 35°55' W 005°19'0 0.0
2015-Jan-26 13:32N 35°55' W 005°19'0 0.1
2015-Jan-26 12:30N 35°55' W 005°19'3 0.6
2015-Jan-26 07:29N 35°55' W 005°15'8 9.1
2015-Jan-26 06:33N 35°57' W 005°26'196 9.6
2015-Jan-25 10:10N 36°38' W 009°23'610.2
2015-Jan-25 09:33N 36°42' W 009°29'20 9.8
2015-Jan-25 07:33N 36°60' W 009°40'14 9.7
2015-Jan-25 06:07N 37°13' W 009°44'6 9.7
2015-Jan-25 05:33N 37°19' W 009°45'1010.0
2015-Jan-25 04:33N 37°28' W 009°46'1010.1
2015-Jan-25 03:33N 37°38' W 009°49'1010.1
2015-Jan-25 02:33N 37°48' W 009°52'1010.1
2015-Jan-25 01:32N 37°58' W 009°55'1010.0
2015-Jan-25 00:33N 38°08' W 009°58'  
2015-Jan-20 13:33N 49°30' W 000°22'10 9.7
2015-Jan-20 12:33N 49°21' W 000°14'5 4.7
2015-Jan-20 11:32N 49°17' W 000°15'4 0.2
2015-Jan-19 16:11N 49°14' W 000°18'0 0.0
2015-Jan-19 15:23N 49°14' W 000°18'0 0.0
2015-Jan-19 14:20N 49°14' W 000°18'0 0.0
2015-Jan-19 13:33N 49°14' W 000°18'0 0.0
2015-Jan-19 09:22N 49°14' W 000°18'0 0.0
2015-Jan-19 07:03N 49°14' W 000°18'0 0.0
2015-Jan-19 06:27N 49°14' W 000°18'0 0.0
2015-Jan-19 05:21N 49°14' W 000°18'0 0.0
2015-Jan-19 04:32N 49°14' W 000°18'0 0.0
2015-Jan-19 00:31N 49°14' W 000°18'0 0.0
2015-Jan-18 15:21N 49°14' W 000°18'0 0.0
2015-Jan-18 14:20N 49°14' W 000°18'0 0.0
2015-Jan-18 10:31N 49°14' W 000°18'0 0.2
2015-Jan-18 09:33N 49°14' W 000°18'4 3.8
2015-Jan-18 08:33N 49°17' W 000°15'3 2.7
2015-Jan-18 07:33N 49°19' W 000°12'0 0.0
2015-Jan-18 06:22N 49°19' W 000°12'0 0.0
2015-Jan-18 05:11N 49°19' W 000°12'1 0.4
2015-Jan-18 03:23N 49°20' W 000°12'8 8.5
2015-Jan-18 02:26N 49°27' W 000°17'  

Dump ship's entire track history